Accueil
METAR-TAF:

METAR-TAF

Aéroports :

Aéroport régional de Rapid City

Rapid City, Dakota du Sud, États-Unis

latitude: 44-02-44N, longitude: 103-03-14W, altitude: 976 m

Observation

Le bulletin a été fait il y a 1 heure et 7 minutes, à 00:52 UTC
Vent 5 kt de sud
Température -16°C
Humidité 92%
Pression 1033 hPa
Visibilité: 16.1 km
Ciel clair

METAR: KRAP 120052Z 19005KT 10SM CLR M16/M17 A3049 RMK AO2 SLP408 T11561172 $

Heure: 18:59 (01:59 UTC)

Prévision

Le bulletin a été fait il y a 2 heures et 27 minutes, à 23:32 UTC
Prévision valable du 12 à 00 UTC au 12 à 24 UTC
Vent 5 kt de sud
Visibilité: 10 km
Ciel clair
A partir de 12 à 1400 UTC
Vent 7 kt de ouest/sud-ouest
Visibilité: 10 km
Ciel clair

TAF: KRAP 112332Z 1200/1224 18005KT P6SM SKC FM121400 24007KT P6SM SKC

Observations et prévisions météorologiques de plus de 4000 aéroports (messages METAR et TAF).

Les stations disponibles sont représentées par des disques jaunes et rouges sur la carte.

Passer la souris dessus pour voir le nom de la station.

Cliquer dessus pour voir les observations et prévisions météorologiques.

Pour changer de carte: cliquez sur les boutons verts avec une croix noire pour zoomer, sur le bouton vert avec un tiret pour effectuer un zoom arrière, ou sur les flèches vertes pour les cartes adjacentes.


METAR-TAF: